createdAt,value
2019-02-12T00:11:59.860Z,89.33
2019-02-12T00:15:35.478Z,86.77
2019-02-12T00:16:30.895Z,87.67
2019-02-12T00:17:31.138Z,87.29
2019-02-12T00:18:24.257Z,87.48
2019-02-12T00:19:20.924Z,86.53
2019-02-12T00:28:23.299Z,85.77
2019-02-12T00:29:20.405Z,86.15
2019-02-12T00:30:11.697Z,86.43
2019-02-12T00:35:13.176Z,85.39
2019-02-12T00:36:08.724Z,85.2
2019-02-12T00:36:59.033Z,84.82
2019-02-12T00:39:54.478Z,85.11
2019-02-12T00:43:08.622Z,85.77
2019-02-12T00:54:41.277Z,83.87
2019-02-12T00:59:43.236Z,84.91
2019-02-12T01:06:14.682Z,85.91
2019-02-12T01:07:07.005Z,86.68
2019-02-12T01:08:08.137Z,86.58
2019-02-12T01:09:11.507Z,86.2
2019-02-12T01:10:16.649Z,86.96
2019-02-12T01:11:17.284Z,87.43
2019-02-12T01:12:20.633Z,87.34
2019-02-12T01:13:19.005Z,87.91
2019-02-12T01:14:28.410Z,87.57
2019-02-12T01:18:39.946Z,87.29
2019-02-12T01:23:05.779Z,85.77
2019-02-12T01:26:56.023Z,86.05
2019-02-12T01:27:43.081Z,86.15
2019-02-12T01:28:36.152Z,87.29
2019-02-12T01:29:25.490Z,86.11
2019-02-12T01:31:33.752Z,86.24
2019-02-12T01:32:26.047Z,86.53
2019-02-12T01:40:58.391Z,86.63
2019-02-12T01:44:09.182Z,85.11
2019-02-12T01:45:00.282Z,84.72
2019-02-12T01:45:50.513Z,85.2
2019-02-12T01:46:46.387Z,85.49
2019-02-12T01:47:36.099Z,83.87
2019-02-12T01:48:28.573Z,84.82
2019-02-12T01:49:18.745Z,85.3
2019-02-12T01:50:09.639Z,84.82
2019-02-12T01:51:00.869Z,84.63
2019-02-12T01:52:01.273Z,84.63
2019-02-12T01:52:52.531Z,84.82
2019-02-12T01:53:46.195Z,83.78
2019-02-12T01:54:35.100Z,84.91
2019-02-12T01:55:25.635Z,84.91
2019-02-12T02:07:25.541Z,84.82
2019-02-12T02:08:19.587Z,84.91
2019-02-12T02:09:31.568Z,85.3
2019-02-12T02:12:27.327Z,86.01
2019-02-12T02:13:23.972Z,86.34
2019-02-12T02:14:11.338Z,86.91
2019-02-12T02:16:35.213Z,85.49
2019-02-12T02:17:29.608Z,85.68
2019-02-12T02:18:24.704Z,85.01
2019-02-12T02:22:57.740Z,86.34
2019-02-12T02:23:38.740Z,85.86
2019-02-12T02:25:45.397Z,86.72
2019-02-12T02:26:35.909Z,85.53
2019-02-12T02:27:23.988Z,86.01
2019-02-12T02:28:12.699Z,85.16
2019-02-12T02:29:05.027Z,85.44
2019-02-12T02:29:57.923Z,86.39
2019-02-12T02:33:28.641Z,86.87
2019-02-12T02:34:27.521Z,86.68
2019-02-12T02:35:18.185Z,87.24
2019-02-12T02:36:11.011Z,87.05
2019-02-12T02:37:07.390Z,88.1
2019-02-12T02:37:53.964Z,87.43
2019-02-12T02:38:50.047Z,87.43
2019-02-12T02:39:39.718Z,86.68
2019-02-12T02:40:32.899Z,86.68
2019-02-12T02:50:53.486Z,85.3
2019-02-12T02:57:19.330Z,86.01
2019-02-12T03:03:19.102Z,85.91
2019-02-12T03:04:03.314Z,86.2
2019-02-12T03:17:13.831Z,85.96
2019-02-12T03:31:12.863Z,87.53
2019-02-12T03:32:05.789Z,86.68
2019-02-12T03:32:57.343Z,86.39
2019-02-12T03:33:47.120Z,87.91
2019-02-12T03:34:38.409Z,87.72
2019-02-12T03:35:32.447Z,88.39
2019-02-12T03:38:14.755Z,90.57
2019-02-12T03:39:11.302Z,90.66
2019-02-12T03:40:07.372Z,89.33
2019-02-12T03:41:06.819Z,89.43
2019-02-12T03:42:01.258Z,89.62
2019-02-12T03:42:56.143Z,89.72
2019-02-12T03:47:27.589Z,89.62
2019-02-12T03:48:21.203Z,89.43
2019-02-12T03:56:27.437Z,88.53
2019-02-12T03:57:25.526Z,88.05
2019-02-12T03:59:56.456Z,87.19
2019-02-12T04:00:50.370Z,86.53
2019-02-12T04:01:44.820Z,85.86
2019-02-12T04:19:38.559Z,86.43
2019-02-12T04:20:35.098Z,86.72
2019-02-12T04:21:41.142Z,86.11
2019-02-12T04:22:43.998Z,86.68
2019-02-12T04:23:50.551Z,88.29
2019-02-12T04:24:45.759Z,88.39
2019-02-12T04:25:40.572Z,88.2
2019-02-12T04:26:40.616Z,88.39
2019-02-12T05:06:33.725Z,97.78
2019-02-12T05:07:27.147Z,97.97
2019-02-12T05:08:19.181Z,99.49
2019-02-12T05:09:13.106Z,99.68
2019-02-12T05:10:05.610Z,99.87
2019-02-12T05:10:58.561Z,99.3
2019-02-12T05:11:51.451Z,98.73
2019-02-12T05:12:44.521Z,98.54
2019-02-12T05:13:38.064Z,98.54
2019-02-12T05:14:31.351Z,98.78
2019-02-12T05:15:24.933Z,98.73
2019-02-12T05:16:18.547Z,98.4
2019-02-12T05:17:14.942Z,98.49
2019-02-12T05:18:20.953Z,97.55
2019-02-12T05:19:20.402Z,97.07
2019-02-12T05:20:17.586Z,97.74
2019-02-12T05:21:19.647Z,97.36
2019-02-12T05:22:17.972Z,96.22
2019-02-12T05:23:17.139Z,94.79
2019-02-12T05:24:16.045Z,94.79
2019-02-12T05:25:22.782Z,95.27
2019-02-12T05:26:22.031Z,95.07
2019-02-12T05:27:21.787Z,94.42
2019-02-12T05:28:15.280Z,94.98
2019-02-12T05:29:10.675Z,93.46
2019-02-12T05:30:05.838Z,92.61
2019-02-12T05:31:04.597Z,93.46
2019-02-12T05:31:57.918Z,95.07
2019-02-12T05:32:56.793Z,94.42
2019-02-12T05:33:52.352Z,93.75
2019-02-12T05:34:46.687Z,94.23
2019-02-12T05:35:43.959Z,94.79
2019-02-12T05:36:39.438Z,94.7
2019-02-12T05:37:33.834Z,95.27
2019-02-12T05:38:31.261Z,94.98
2019-02-12T05:39:27.491Z,94.27
2019-02-12T05:40:25.172Z,93.94
2019-02-12T05:41:19.004Z,93.8
2019-02-12T05:42:16.174Z,95.12
2019-02-12T05:46:57.446Z,95.74
2019-02-12T05:52:22.763Z,95.84
2019-02-12T05:53:25.958Z,94.7
2019-02-12T05:54:48.892Z,94.51
2019-02-12T06:03:30.799Z,91.85
2019-02-12T06:06:42.631Z,91.85
2019-02-12T06:07:40.064Z,92.61
2019-02-12T06:12:41.951Z,93.94
2019-02-12T06:13:39.675Z,92.8
2019-02-12T06:14:45.640Z,92.33
2019-02-12T06:16:00.045Z,91
2019-02-12T06:16:57.085Z,91.85
2019-02-12T06:17:53.679Z,93.75
2019-02-12T06:27:32.635Z,94.32
2019-02-12T06:28:28.837Z,93.46
2019-02-12T06:29:23.233Z,93.56
2019-02-12T06:30:18.055Z,93.37
2019-02-12T06:33:07.155Z,92.42
2019-02-12T06:34:02.677Z,92.61
2019-02-12T06:35:10.161Z,92.23
2019-02-12T06:51:35.905Z,93.84
2019-02-12T06:52:30.914Z,93.46
2019-02-12T06:53:25.243Z,93.18
2019-02-12T06:56:01.158Z,92.61
2019-02-12T06:57:03.621Z,92.52
2019-02-12T06:57:59.606Z,93.27
2019-02-12T06:59:56.369Z,93.84
2019-02-12T07:00:49.427Z,92.9
2019-02-12T07:01:42.658Z,93.56
2019-02-12T07:02:37.013Z,93.27
2019-02-12T07:03:32.610Z,92.8
2019-02-12T07:04:26.746Z,92.61
2019-02-12T07:06:42.236Z,92.04
2019-02-12T07:07:38.748Z,92.99
2019-02-12T07:08:39.553Z,93.27
2019-02-12T07:11:19.353Z,93.56
2019-02-12T07:13:34.414Z,92.52
2019-02-12T07:14:18.398Z,92.04
2019-02-12T07:14:59.685Z,93.37
2019-02-12T07:15:40.291Z,92.99
2019-02-12T07:16:20.445Z,91.75
2019-02-12T07:17:00.835Z,92.33
2019-02-12T07:17:41.279Z,91.66
2019-02-12T07:18:25.719Z,92.9
2019-02-12T07:19:06.187Z,94.03
2019-02-12T07:19:46.713Z,92.99
2019-02-12T07:20:29.204Z,93.75
2019-02-12T07:21:09.656Z,92.9
2019-02-12T07:21:50.149Z,93.56
2019-02-12T07:22:30.739Z,94.42
2019-02-12T07:23:11.234Z,93.75
2019-02-12T07:23:56.048Z,92.8
2019-02-12T07:24:36.980Z,92.71
2019-02-12T07:25:16.572Z,91.75
2019-02-12T07:25:57.161Z,92.04
2019-02-12T07:26:37.734Z,92.42
2019-02-12T07:27:20.118Z,92.52
2019-02-12T07:28:01.471Z,92.71
2019-02-12T07:28:42.294Z,92.8
2019-02-12T07:29:25.723Z,92.52
2019-02-12T07:30:05.493Z,91.75
2019-02-12T07:30:50.910Z,90.9
2019-02-12T07:36:37.092Z,89.53
2019-02-12T07:37:35.143Z,89.05
2019-02-12T07:56:21.227Z,82.15
2019-02-12T07:57:27.847Z,81.16
2019-02-12T07:58:25.125Z,81.25
2019-02-12T07:59:22.374Z,81.16
2019-02-12T08:03:06.084Z,82.49
2019-02-12T08:06:11.596Z,81.63
2019-02-12T08:07:07.409Z,81.06
2019-02-12T08:08:12.927Z,81.38
2019-02-12T08:16:41.503Z,78
2019-02-12T08:30:50.505Z,78.16
2019-02-12T08:38:47.578Z,77.81
2019-02-12T08:41:10.292Z,78.29
2019-02-12T08:42:05.955Z,78.48
2019-02-12T08:47:26.170Z,77.43
2019-02-12T08:49:27.335Z,77.62
2019-02-12T08:50:05.375Z,77.56
2019-02-12T08:50:47.940Z,78.9
2019-02-12T08:51:28.348Z,78.04
2019-02-12T08:52:11.489Z,76.81
2019-02-12T08:52:53.752Z,76.42
2019-02-12T08:53:34.974Z,76.61
2019-02-12T08:58:11.539Z,76.9
2019-02-12T09:12:31.552Z,75.85
2019-02-12T09:17:59.860Z,77.56
2019-02-12T09:18:41.050Z,77.47
2019-02-12T09:19:28.354Z,77.56
2019-02-12T09:20:54.784Z,77.28
2019-02-12T09:55:41.573Z,79.57
2019-02-12T10:03:09.389Z,79.57
2019-02-12T10:04:11.773Z,80.61
2019-02-12T10:04:55.368Z,79.75
2019-02-12T10:05:37.918Z,79.66
2019-02-12T10:06:25.685Z,78.99
2019-02-12T10:07:36.453Z,79.75
2019-02-12T10:08:26.162Z,79.13
2019-02-12T10:15:13.557Z,80.99
2019-02-12T11:22:23.529Z,79.8
2019-02-12T11:23:13.862Z,78.37
2019-02-12T11:24:00.399Z,77.61
2019-02-12T11:24:47.704Z,76.84
2019-02-12T11:25:32.898Z,77.03
2019-02-12T11:26:14.972Z,76.08
2019-02-12T11:27:01.180Z,76.94
2019-02-12T11:27:51.833Z,76.84
2019-02-12T11:28:51.067Z,76.4
2019-02-12T11:36:45.253Z,74.98
2019-02-12T11:37:29.197Z,74.6
2019-02-12T11:38:37.450Z,75.26
2019-02-12T11:39:19.200Z,75.07
2019-02-12T11:39:59.809Z,74.31
2019-02-12T11:40:40.587Z,74.12
2019-02-12T11:41:29.308Z,74.02
2019-02-12T11:42:09.837Z,73.36
2019-02-12T11:42:59.348Z,73.17
2019-02-12T11:43:46.690Z,74.69
2019-02-12T11:44:28.965Z,73.65
2019-02-12T11:45:13.168Z,73.65
2019-02-12T11:45:53.647Z,74.21
2019-02-12T11:46:38.789Z,73.45
2019-02-12T11:47:25.188Z,73.83
2019-02-12T11:48:11.463Z,73.17
2019-02-12T11:48:55.134Z,73.55
2019-02-12T11:49:39.380Z,73.65
2019-02-12T11:50:19.774Z,73.36
2019-02-12T11:51:03.179Z,73.26
2019-02-12T11:51:44.455Z,73.36
2019-02-12T11:52:31.229Z,73.65
2019-02-12T11:53:16.096Z,73.36
2019-02-12T11:54:01.257Z,73.45
2019-02-12T11:54:44.785Z,74.02
2019-02-12T11:55:36.764Z,73.07
2019-02-12T11:57:35.803Z,73.36
2019-02-12T11:58:35.626Z,73.17
2019-02-12T11:59:36.693Z,73.83
2019-02-12T12:03:50.215Z,74.73
2019-02-12T12:04:52.625Z,73.49
2019-02-12T12:06:05.189Z,71.87
2019-02-12T12:06:58.794Z,72.92
2019-02-12T12:07:51.494Z,72.34
2019-02-12T12:08:45.030Z,72.53
2019-02-12T12:09:43.489Z,71.01
2019-02-12T12:10:46.070Z,72.92
2019-02-12T12:11:39.521Z,71.87
2019-02-12T12:12:37.613Z,71.58
2019-02-12T12:13:32.816Z,71.96
2019-02-12T12:14:28.091Z,71.77
2019-02-12T12:15:21.085Z,72.06
2019-02-12T12:16:15.921Z,71.87
2019-02-12T12:17:10.198Z,71.58
2019-02-12T12:18:07.886Z,71.11
2019-02-12T12:18:52.539Z,70.53
2019-02-12T12:19:42.598Z,70.53
2019-02-12T12:20:24.856Z,71.39
2019-02-12T12:21:26.946Z,73.01
2019-02-12T12:22:07.708Z,71.77
2019-02-12T12:22:49.694Z,70.82
2019-02-12T12:31:38.553Z,69.43
2019-02-12T12:32:45.048Z,69.71
2019-02-12T12:35:19.245Z,69.71
2019-02-12T12:36:25.546Z,69.43
2019-02-12T12:37:19.764Z,69.62
2019-02-12T12:38:16.137Z,69.71
2019-02-12T12:39:10.493Z,69.33
2019-02-12T12:40:05.004Z,69.23
2019-02-12T12:40:59.551Z,67.99
2019-02-12T12:42:00.089Z,69.43
2019-02-12T12:42:53.521Z,69.43
2019-02-12T12:43:47.486Z,68.47
2019-02-12T12:44:41.815Z,68.66
2019-02-12T12:45:37.819Z,68.57
2019-02-12T12:46:33.378Z,69.43
2019-02-12T12:47:29.677Z,68.95
2019-02-12T12:48:30.504Z,68.28
2019-02-12T12:49:27.148Z,67.14
2019-02-12T12:50:35.366Z,66.47
2019-02-12T12:51:33.317Z,65.52
2019-02-12T12:52:27.953Z,67.99
2019-02-12T12:53:20.911Z,67.42
2019-02-12T12:54:16.626Z,66.88
2019-02-12T12:55:17.705Z,66.69
2019-02-12T12:56:12.033Z,66.31
2019-02-12T12:58:46.882Z,64.5
2019-02-12T12:59:54.781Z,65.17
2019-02-12T13:00:53.369Z,65.74
2019-02-12T13:02:45.264Z,65.93
2019-02-12T13:04:07.911Z,64.88
2019-02-12T13:06:57.663Z,62.97
2019-02-12T13:13:31.913Z,59.44
2019-02-12T13:14:27.234Z,57.53
2019-02-12T13:15:35.937Z,58
2019-02-12T13:16:30.101Z,58.48
2019-02-12T13:17:28.196Z,58
2019-02-12T13:18:24.973Z,58.8
2019-02-12T13:20:33.428Z,58.32
2019-02-12T13:22:33.188Z,57.65
2019-02-12T13:23:31.177Z,57.43
2019-02-12T13:24:32.020Z,56.95
2019-02-12T13:25:37.801Z,58.38
2019-02-12T13:27:33.831Z,58.1
2019-02-12T13:28:32.211Z,57.62
2019-02-12T13:29:30.976Z,56.95
2019-02-12T13:30:44.627Z,58.48
2019-02-12T13:31:43.784Z,57.53
2019-02-12T13:32:41.194Z,58.1
2019-02-12T13:33:34.803Z,57.65
2019-02-12T13:34:27.088Z,56.85
2019-02-12T13:35:22.193Z,56.28
2019-02-12T13:36:17.699Z,56.47
2019-02-12T13:37:13.013Z,56.47
2019-02-12T13:38:11.579Z,56.57
2019-02-12T13:39:06.039Z,56.88
2019-02-12T13:40:02.533Z,56.31
2019-02-12T13:40:59.521Z,55.74
2019-02-12T13:43:41.771Z,56.6
2019-02-12T13:44:45.275Z,56.12
2019-02-12T13:45:42.103Z,56.21
2019-02-12T13:46:41.009Z,56.31
2019-02-12T13:47:35.207Z,55.93
2019-02-12T13:48:28.106Z,55.1
2019-02-12T13:49:24.422Z,53.75
2019-02-12T13:50:25.755Z,53.63
2019-02-12T13:51:33.451Z,54.97
2019-02-12T13:52:27.759Z,55.35
2019-02-12T13:53:25.226Z,53.92
2019-02-12T13:54:23.836Z,54.3
2019-02-12T13:55:22.679Z,54.97
2019-02-12T13:56:20.029Z,53.53
2019-02-12T13:57:17.435Z,54.21
2019-02-12T13:58:18.566Z,53.92
2019-02-12T13:59:14.084Z,54.04
2019-02-12T14:02:07.157Z,53.34
2019-02-12T14:03:12.890Z,53.63
2019-02-12T14:04:14.187Z,53.82
2019-02-12T14:07:00.857Z,53.92
2019-02-12T14:09:25.589Z,53.73
2019-02-12T14:11:30.974Z,54.59
2019-02-12T14:13:17.831Z,53.73
2019-02-12T14:14:19.503Z,53.53
2019-02-12T14:15:13.744Z,53.73
2019-02-12T14:16:11.516Z,55.16
2019-02-12T14:17:07.274Z,55.26
2019-02-12T14:18:01.068Z,54.39
2019-02-12T14:18:54.673Z,54.97
2019-02-12T14:21:05.865Z,55.93
2019-02-12T14:21:56.486Z,55.54
2019-02-12T14:22:51.892Z,55.83
2019-02-12T14:23:33.262Z,55.83
2019-02-12T14:24:21.925Z,55.35
2019-02-12T14:25:27.369Z,54.08
2019-02-12T14:26:08.745Z,55.13
2019-02-12T14:26:51.039Z,55.71
2019-02-12T14:27:34.207Z,56.18
2019-02-12T14:28:19.687Z,55.13
2019-02-12T14:29:19.445Z,56.38
2019-02-12T14:30:01.092Z,56.09
2019-02-12T14:30:43.904Z,56.47
2019-02-12T14:31:24.391Z,55.32
2019-02-12T14:32:10.457Z,56.38
2019-02-12T14:32:51.043Z,57.81
2019-02-12T14:33:37.103Z,57.62
2019-02-12T14:34:20.941Z,56.67
2019-02-12T14:35:01.390Z,56.47
2019-02-12T14:35:42.487Z,56.28
2019-02-12T14:36:25.573Z,56.85
2019-02-12T14:37:06.794Z,56.38
2019-02-12T14:37:50.508Z,56.18
2019-02-12T14:38:35.101Z,56.38
2019-02-12T14:39:23.777Z,56.38
2019-02-12T14:40:04.837Z,56.28
2019-02-12T14:42:00.106Z,56.67
2019-02-12T14:42:54.567Z,56.67
2019-02-12T14:43:49.758Z,56.57
2019-02-12T14:44:45.236Z,56.67
2019-02-12T14:45:39.955Z,56.57
2019-02-12T14:46:35.015Z,57.53
2019-02-12T14:47:32.357Z,56.82
2019-02-12T14:48:28.340Z,57.04
2019-02-12T14:49:28.076Z,57.68
2019-02-12T14:50:36.252Z,57.4
2019-02-12T14:51:34.094Z,58.64
2019-02-12T14:52:36.135Z,58.45
2019-02-12T14:53:35.240Z,59.69
2019-02-12T14:54:32.412Z,59.78
2019-02-12T14:55:41.946Z,60.07
2019-02-12T14:56:37.959Z,59.5
2019-02-12T14:57:51.717Z,60.07
2019-02-12T14:58:47.897Z,59.69
2019-02-12T15:00:05.851Z,60.64
2019-02-12T15:01:04.319Z,59.5
2019-02-12T15:02:04.697Z,60.24
2019-02-12T15:03:07.973Z,60.42
2019-02-12T15:04:15.662Z,59.56
2019-02-12T15:06:59.282Z,61.92
2019-02-12T15:07:39.910Z,62.81
2019-02-12T15:08:20.365Z,61.95
2019-02-12T15:09:03.402Z,61.1
2019-02-12T15:09:44.081Z,60.97
2019-02-12T15:10:24.508Z,61.63
2019-02-12T15:11:07.420Z,62.21
2019-02-12T15:11:52.558Z,62.52
2019-02-12T15:14:11.856Z,62.3
2019-02-12T15:15:06.391Z,63.16
2019-02-12T15:16:06.812Z,62.4
2019-02-12T15:17:03.581Z,62.78
2019-02-12T15:18:04.465Z,62.71
2019-02-12T15:19:00.985Z,62.71
2019-02-12T15:20:16.238Z,62.3
2019-02-12T15:21:11.000Z,62.68
2019-02-12T15:22:07.347Z,63.73
2019-02-12T15:23:05.157Z,64.12
2019-02-12T15:24:05.894Z,64.02
2019-02-12T15:25:20.384Z,64.21
2019-02-12T15:27:34.790Z,63.16
2019-02-12T15:28:17.564Z,63.64
2019-02-12T15:29:05.058Z,64.02
2019-02-12T15:29:54.029Z,64.21
2019-02-12T15:44:32.956Z,64.85
2019-02-12T15:50:18.566Z,65.64
2019-02-12T15:51:18.871Z,65.13
2019-02-12T15:52:17.121Z,65.83
2019-02-12T15:53:20.293Z,66.31
2019-02-12T15:54:17.670Z,65.93
2019-02-12T15:55:23.701Z,66.31
2019-02-12T15:56:22.565Z,65.74
2019-02-12T15:57:24.758Z,65.89
2019-02-12T15:58:23.119Z,66.18
2019-02-12T15:59:23.334Z,66.47
2019-02-12T16:00:20.875Z,65.8
2019-02-12T16:01:19.145Z,65.99
2019-02-12T16:02:27.868Z,65.7
2019-02-12T16:03:28.484Z,66.85
2019-02-12T16:04:27.538Z,67.23
2019-02-12T16:05:37.116Z,67.33
2019-02-12T16:07:55.596Z,67.2
2019-02-12T16:11:41.858Z,68.72
2019-02-12T16:12:39.456Z,68.15
2019-02-12T16:13:35.186Z,68.05
2019-02-12T16:14:31.110Z,67.9
2019-02-12T16:15:39.066Z,66.63
2019-02-12T16:16:32.234Z,67.39
2019-02-12T16:17:28.600Z,67.39
2019-02-12T16:18:24.810Z,68.15
2019-02-12T16:19:21.358Z,67.1
2019-02-12T16:20:15.818Z,67.39
2019-02-12T16:21:19.816Z,67.29
2019-02-12T16:22:51.188Z,68.63
2019-02-12T16:23:46.170Z,68.15
2019-02-12T16:24:41.917Z,68.53
2019-02-12T16:25:36.192Z,68.24
2019-02-12T16:26:33.925Z,68.63
2019-02-12T16:27:58.870Z,69.58
2019-02-12T16:29:51.688Z,69.01
2019-02-12T16:30:50.273Z,69.29
2019-02-12T16:31:46.047Z,69.58
2019-02-12T17:08:08.410Z,77.43
2019-02-12T17:09:07.741Z,77.43
2019-02-12T17:10:05.758Z,77.53
2019-02-12T17:11:03.044Z,78.38
2019-02-12T17:12:05.061Z,78.82
2019-02-12T17:13:02.954Z,79.62
2019-02-12T17:13:59.536Z,80.53
2019-02-12T17:14:59.402Z,79.3
2019-02-12T17:16:05.538Z,79.2
2019-02-12T17:17:07.142Z,78.91
2019-02-12T17:19:10.231Z,79.58
2019-02-12T17:20:05.386Z,80.63
2019-02-12T17:25:45.627Z,79.96
2019-02-12T17:26:45.548Z,80.15
2019-02-12T17:27:45.651Z,79.58
2019-02-12T17:28:50.233Z,79.68
2019-02-12T17:29:46.927Z,79.39
2019-02-12T17:30:52.466Z,79.58
2019-02-12T17:31:50.136Z,79.62
2019-02-12T17:32:48.412Z,79.14
2019-02-12T17:33:41.259Z,79.05
2019-02-12T17:34:45.124Z,79.43
2019-02-12T17:37:20.939Z,78.48
2019-02-12T17:38:22.253Z,79.24
2019-02-12T17:39:18.918Z,80.1
2019-02-12T17:40:16.313Z,79.24
2019-02-12T17:42:35.766Z,79.43
2019-02-12T17:43:28.445Z,79.43
2019-02-12T17:44:22.151Z,78.77
2019-02-12T17:45:17.505Z,77.62
2019-02-12T17:46:16.984Z,77.24
2019-02-12T17:47:11.787Z,77.15
2019-02-12T17:48:08.115Z,77.53
2019-02-12T17:49:04.446Z,78.25
2019-02-12T17:49:59.432Z,77.97
2019-02-12T17:50:54.492Z,77.3
2019-02-12T17:51:48.600Z,77.87
2019-02-12T17:52:41.727Z,78.34
2019-02-12T17:53:38.250Z,79.2
2019-02-12T17:54:33.624Z,79.2
2019-02-12T17:55:30.405Z,78.63
2019-02-12T17:56:26.151Z,78.91
2019-02-12T17:57:21.202Z,78.72
2019-02-12T17:58:14.611Z,78.91
2019-02-12T17:59:09.436Z,79.01
2019-02-12T18:00:07.042Z,79.11
2019-02-12T18:01:04.792Z,78.91
2019-02-12T18:01:57.109Z,79.77
2019-02-12T18:02:52.728Z,79.58
2019-02-12T18:03:45.918Z,79.35
2019-02-12T18:04:38.946Z,79.25
2019-02-12T18:05:32.957Z,79.16
2019-02-12T18:06:24.837Z,79.63
2019-02-12T18:07:16.953Z,79.83
2019-02-12T18:08:10.538Z,80.21
2019-02-12T18:09:03.249Z,80.02
2019-02-12T18:09:55.020Z,80.11
2019-02-12T18:10:52.402Z,80.77
2019-02-12T18:11:44.999Z,81.73
2019-02-12T18:12:37.485Z,81.16
2019-02-12T18:13:29.553Z,81.16
2019-02-12T18:14:21.710Z,81.06
2019-02-12T18:15:13.972Z,81.35
2019-02-12T18:16:07.607Z,82.77
2019-02-12T18:16:59.719Z,83.2
2019-02-12T18:17:52.530Z,83.15
2019-02-12T18:18:44.574Z,83.15
2019-02-12T18:19:37.148Z,82.96
2019-02-12T18:20:29.659Z,83.53
2019-02-12T18:21:23.054Z,83.01
2019-02-12T18:22:16.010Z,83.87
2019-02-12T18:23:09.316Z,83.01
2019-02-12T18:24:01.434Z,82.92
2019-02-12T18:24:53.573Z,83.01
2019-02-12T18:25:47.202Z,82.92
2019-02-12T18:26:39.258Z,83.78
2019-02-12T18:27:32.956Z,84.16
2019-02-12T18:28:25.431Z,85.01
2019-02-12T18:29:17.890Z,84.91
2019-02-12T18:30:10.393Z,85.2
2019-02-12T18:31:03.705Z,84.91
2019-02-12T18:31:55.783Z,85.3
2019-02-12T18:32:48.618Z,85.2
2019-02-12T18:33:41.101Z,85.82
2019-02-12T18:34:33.157Z,85.25
2019-02-12T18:35:26.221Z,85.72
2019-02-12T18:36:18.482Z,85.91
2019-02-12T18:37:10.920Z,85.91
2019-02-12T18:38:03.483Z,86.39
2019-02-12T18:38:55.670Z,87.43
2019-02-12T18:39:48.639Z,87.53
2019-02-12T18:40:40.832Z,87.91
2019-02-12T18:41:32.809Z,87.72
2019-02-12T18:42:26.837Z,86.77
2019-02-12T18:43:21.222Z,86.68
2019-02-12T18:44:13.640Z,87.91
2019-02-12T18:45:05.821Z,87.24
2019-02-12T18:45:58.567Z,87.34
2019-02-12T18:48:07.268Z,86.58
2019-02-12T18:48:59.425Z,86.58
2019-02-12T18:49:51.518Z,87.53
2019-02-12T18:50:45.181Z,87.05
2019-02-12T18:51:37.702Z,88.1
2019-02-12T18:52:30.297Z,88.39
2019-02-12T18:53:22.942Z,88.57
2019-02-12T18:54:15.324Z,88.01
2019-02-12T18:55:07.781Z,87.91
2019-02-12T18:56:01.422Z,88.1
2019-02-12T18:56:55.178Z,88.48
2019-02-12T18:57:46.955Z,88.57
2019-02-12T18:58:39.402Z,88.2
2019-02-12T18:59:32.276Z,87.91
2019-02-12T19:00:25.542Z,87.72
2019-02-12T19:01:17.873Z,86.87
2019-02-12T19:02:10.704Z,86.87
2019-02-12T19:03:02.493Z,87.05
2019-02-12T19:03:55.194Z,87.15
2019-02-12T19:04:47.860Z,86.96
2019-02-12T19:05:40.414Z,86.68
2019-02-12T19:06:32.775Z,86.49
2019-02-12T19:07:24.947Z,86.2
2019-02-12T19:08:17.762Z,86.68
2019-02-12T19:09:10.376Z,87.05
2019-02-12T19:10:03.712Z,86.91
2019-02-12T19:10:56.529Z,87.53
2019-02-12T19:11:54.087Z,87.49
2019-02-12T19:12:42.718Z,88.29
2019-02-12T19:13:34.817Z,88.06
2019-02-12T19:14:27.991Z,88.29
2019-02-12T19:15:22.522Z,88.39
2019-02-12T19:16:16.829Z,89.1
2019-02-12T19:17:08.859Z,88.43
2019-02-12T19:18:01.803Z,88.43
2019-02-12T19:18:54.738Z,88.91
2019-02-12T19:19:48.041Z,88.91
2019-02-12T19:20:39.838Z,89.81
2019-02-12T19:21:34.508Z,89.81
2019-02-12T19:22:27.068Z,89.81
2019-02-12T19:23:19.359Z,89.43
2019-02-12T19:24:11.791Z,89.43
2019-02-12T19:25:06.815Z,88.1
2019-02-12T19:25:59.350Z,88.67
2019-02-12T19:26:52.634Z,88.2
2019-02-12T19:27:46.187Z,88.67
2019-02-12T19:28:38.293Z,87.72
2019-02-12T19:29:30.396Z,88.1
2019-02-12T19:30:22.259Z,87.15
2019-02-12T19:31:14.688Z,87.72
2019-02-12T19:32:09.495Z,86.77
2019-02-12T19:33:01.850Z,87.24
2019-02-12T19:33:53.820Z,87.43
2019-02-12T19:34:47.535Z,86.87
2019-02-12T19:35:40.368Z,87.05
2019-02-12T19:36:34.293Z,87.58
2019-02-12T19:37:28.327Z,88.91
2019-02-12T19:38:21.561Z,89.14
2019-02-12T19:39:13.822Z,88.95
2019-02-12T19:40:07.146Z,88.34
2019-02-12T19:40:59.411Z,88.39
2019-02-12T19:41:53.036Z,88.43
2019-02-12T19:42:45.450Z,88.53
2019-02-12T19:43:39.079Z,88.81
2019-02-12T19:44:31.239Z,88.53
2019-02-12T19:45:24.375Z,88.15
2019-02-12T19:46:18.074Z,88.34
2019-02-12T19:47:11.463Z,88.34
2019-02-12T19:48:03.524Z,88.81
2019-02-12T19:48:56.228Z,89.29
2019-02-12T19:49:51.065Z,89.39
2019-02-12T19:50:44.318Z,88.72
2019-02-12T19:51:36.714Z,89.48
2019-02-12T19:52:28.935Z,88.91
2019-02-12T19:53:22.124Z,89
2019-02-12T19:54:15.379Z,89.67
2019-02-12T19:55:07.591Z,89.48
2019-02-12T19:56:00.782Z,89.58
2019-02-12T19:56:58.246Z,89.2
2019-02-12T19:57:47.319Z,89.1
2019-02-12T19:58:41.031Z,89
2019-02-12T19:59:33.430Z,90.05
2019-02-12T20:00:25.848Z,90.81
2019-02-12T20:01:18.177Z,91.56
2019-02-12T20:02:10.420Z,92.14
2019-02-12T20:03:03.058Z,91.47
2019-02-12T20:03:56.394Z,91.28
2019-02-12T20:04:49.528Z,90.71
2019-02-12T20:05:42.744Z,89.39
2019-02-12T20:06:34.993Z,89.29
2019-02-12T20:07:27.396Z,88.06
2019-02-12T20:08:19.997Z,87.87
2019-02-12T20:09:12.352Z,88.06
2019-02-12T20:10:04.868Z,88.91
2019-02-12T20:10:57.234Z,88.53
2019-02-12T20:11:50.417Z,88.43
2019-02-12T20:12:42.401Z,88.43
2019-02-12T20:13:34.822Z,89.48
2019-02-12T20:14:27.312Z,89.29
2019-02-12T20:15:19.725Z,89.39
2019-02-12T20:16:13.128Z,89.48
2019-02-12T20:17:05.325Z,89.39
2019-02-12T20:17:57.848Z,89.1
2019-02-12T20:18:50.334Z,90.33
2019-02-12T20:19:42.842Z,90.52
2019-02-12T20:20:35.438Z,90.43
2019-02-12T20:21:27.492Z,89.86
2019-02-12T20:22:19.899Z,89.67
2019-02-12T20:23:13.062Z,88.91
2019-02-12T20:24:05.807Z,89.58
2019-02-12T20:24:58.333Z,89
2019-02-12T20:25:50.601Z,89
2019-02-12T20:26:42.806Z,89.58
2019-02-12T20:27:36.062Z,89
2019-02-12T20:28:28.049Z,88.72
2019-02-12T20:29:20.104Z,88.91
2019-02-12T20:30:12.298Z,88.34
2019-02-12T20:31:04.428Z,89.48
2019-02-12T20:31:57.711Z,89
2019-02-12T20:32:49.507Z,89.39
2019-02-12T20:33:41.409Z,89.48
2019-02-12T20:34:33.323Z,89.39
2019-02-12T20:35:25.469Z,89.67
2019-02-12T20:36:17.771Z,90.43
2019-02-12T20:37:09.676Z,90.14
2019-02-12T20:38:01.886Z,89.67
2019-02-12T20:38:55.066Z,89.76
2019-02-12T20:39:47.204Z,89.39
2019-02-12T20:40:40.339Z,89.72
2019-02-12T20:41:33.658Z,89.53
2019-02-12T20:42:26.340Z,89.29
2019-02-12T20:43:18.957Z,89.53
2019-02-12T20:44:11.053Z,90.57
2019-02-12T20:45:02.921Z,90.57
2019-02-12T20:45:55.306Z,90.1
2019-02-12T20:46:48.529Z,89.91
2019-02-12T20:47:40.348Z,89.91
2019-02-12T20:48:32.559Z,90
2019-02-12T20:49:24.782Z,90.38
2019-02-12T20:50:17.129Z,90.19
2019-02-12T20:51:10.041Z,90.76
2019-02-12T20:52:02.281Z,90.57
2019-02-12T20:52:55.021Z,90.76
2019-02-12T20:53:46.859Z,91.24
2019-02-12T20:54:38.532Z,90.38
2019-02-12T20:55:18.964Z,90.76
2019-02-12T20:55:59.523Z,90.48
2019-02-12T20:56:39.981Z,91.05
2019-02-12T20:57:20.283Z,92.18
2019-02-12T20:58:00.742Z,91.61
2019-02-12T20:58:41.128Z,92.47
2019-02-12T20:59:21.509Z,92.76
2019-02-12T21:00:01.936Z,92.33
2019-02-12T21:00:42.381Z,91.85
2019-02-12T21:01:22.849Z,90.81
2019-02-12T21:02:03.195Z,90.62
2019-02-12T21:02:43.578Z,90.05
2019-02-12T21:03:23.993Z,89.39
2019-02-12T21:04:04.405Z,89.48
2019-02-12T21:04:44.829Z,89.1
2019-02-12T21:05:25.144Z,89.06
2019-02-12T21:06:05.525Z,89.39
2019-02-12T21:06:46.058Z,90.33
2019-02-12T21:07:26.410Z,89.62
2019-02-12T21:08:06.771Z,89.62
2019-02-12T21:08:47.293Z,89.43
2019-02-12T21:09:27.594Z,89.15
2019-02-12T21:10:07.975Z,89.34
2019-02-12T21:10:48.378Z,89.62
2019-02-12T21:11:28.845Z,89.53
2019-02-12T21:12:09.349Z,90
2019-02-12T21:12:49.657Z,90.48
2019-02-12T21:13:30.045Z,90.86
2019-02-12T21:14:10.477Z,90.43
2019-02-12T21:14:50.849Z,90.57
2019-02-12T21:15:31.262Z,90